sensor_id;sensor_type;location;lat;lon;timestamp;temperature;humidity
13344;DHT22;6741;48.964;9.406;2022-10-18T00:00:12;12.00;99.90
13344;DHT22;6741;48.964;9.406;2022-10-18T00:02:41;12.00;99.90
13344;DHT22;6741;48.964;9.406;2022-10-18T00:05:08;12.10;99.90
13344;DHT22;6741;48.964;9.406;2022-10-18T00:07:35;11.90;99.90
13344;DHT22;6741;48.964;9.406;2022-10-18T00:10:03;11.80;99.90
13344;DHT22;6741;48.964;9.406;2022-10-18T00:12:32;11.80;99.90
13344;DHT22;6741;48.964;9.406;2022-10-18T00:14:59;11.70;99.90
13344;DHT22;6741;48.964;9.406;2022-10-18T00:17:26;11.70;99.90
13344;DHT22;6741;48.964;9.406;2022-10-18T00:19:54;11.70;99.90
13344;DHT22;6741;48.964;9.406;2022-10-18T00:22:21;11.60;99.90
13344;DHT22;6741;48.964;9.406;2022-10-18T00:24:50;11.70;99.90
13344;DHT22;6741;48.964;9.406;2022-10-18T00:27:17;11.70;99.90
13344;DHT22;6741;48.964;9.406;2022-10-18T00:29:44;11.70;99.90
13344;DHT22;6741;48.964;9.406;2022-10-18T00:32:11;11.70;99.90
13344;DHT22;6741;48.964;9.406;2022-10-18T00:34:38;11.80;99.90
13344;DHT22;6741;48.964;9.406;2022-10-18T00:37:07;11.80;99.90
13344;DHT22;6741;48.964;9.406;2022-10-18T00:39:34;11.80;99.90
13344;DHT22;6741;48.964;9.406;2022-10-18T00:42:01;11.70;99.90
13344;DHT22;6741;48.964;9.406;2022-10-18T00:44:59;11.60;99.90
13344;DHT22;6741;48.964;9.406;2022-10-18T00:47:26;11.60;99.90
13344;DHT22;6741;48.964;9.406;2022-10-18T00:49:55;11.60;99.90
13344;DHT22;6741;48.964;9.406;2022-10-18T00:52:28;11.50;99.90
13344;DHT22;6741;48.964;9.406;2022-10-18T00:54:58;11.50;99.90
13344;DHT22;6741;48.964;9.406;2022-10-18T00:57:26;11.50;99.90
13344;DHT22;6741;48.964;9.406;2022-10-18T00:59:53;11.50;99.90
13344;DHT22;6741;48.964;9.406;2022-10-18T01:02:21;11.50;99.90
13344;DHT22;6741;48.964;9.406;2022-10-18T01:04:48;11.50;99.90
13344;DHT22;6741;48.964;9.406;2022-10-18T01:07:24;11.50;99.90
13344;DHT22;6741;48.964;9.406;2022-10-18T01:10:08;11.60;99.90
13344;DHT22;6741;48.964;9.406;2022-10-18T01:12:46;11.60;99.90
13344;DHT22;6741;48.964;9.406;2022-10-18T01:15:25;11.60;99.90
13344;DHT22;6741;48.964;9.406;2022-10-18T01:17:58;11.70;99.90
13344;DHT22;6741;48.964;9.406;2022-10-18T01:20:44;11.80;99.90
13344;DHT22;6741;48.964;9.406;2022-10-18T01:23:19;11.80;99.90
13344;DHT22;6741;48.964;9.406;2022-10-18T01:25:56;11.80;99.90
13344;DHT22;6741;48.964;9.406;2022-10-18T01:28:40;11.80;99.90
13344;DHT22;6741;48.964;9.406;2022-10-18T01:31:14;11.80;99.90
13344;DHT22;6741;48.964;9.406;2022-10-18T01:33:45;11.80;99.90
13344;DHT22;6741;48.964;9.406;2022-10-18T01:36:18;11.70;99.90
13344;DHT22;6741;48.964;9.406;2022-10-18T01:38:48;11.70;99.90
13344;DHT22;6741;48.964;9.406;2022-10-18T01:41:15;11.60;99.90
13344;DHT22;6741;48.964;9.406;2022-10-18T01:43:45;11.70;99.90
13344;DHT22;6741;48.964;9.406;2022-10-18T01:46:20;11.70;99.90
13344;DHT22;6741;48.964;9.406;2022-10-18T01:48:48;11.70;99.90
13344;DHT22;6741;48.964;9.406;2022-10-18T01:51:18;11.80;99.90
13344;DHT22;6741;48.964;9.406;2022-10-18T01:53:45;11.90;99.90
13344;DHT22;6741;48.964;9.406;2022-10-18T01:56:29;11.90;99.90
13344;DHT22;6741;48.964;9.406;2022-10-18T01:59:07;12.00;99.90
13344;DHT22;6741;48.964;9.406;2022-10-18T02:01:46;12.10;99.90
13344;DHT22;6741;48.964;9.406;2022-10-18T02:04:21;12.10;99.90
13344;DHT22;6741;48.964;9.406;2022-10-18T02:06:54;12.10;99.90
13344;DHT22;6741;48.964;9.406;2022-10-18T02:09:29;12.10;99.90
13344;DHT22;6741;48.964;9.406;2022-10-18T02:12:00;12.10;99.90
13344;DHT22;6741;48.964;9.406;2022-10-18T02:14:28;12.20;99.90
13344;DHT22;6741;48.964;9.406;2022-10-18T02:16:59;12.10;99.90
13344;DHT22;6741;48.964;9.406;2022-10-18T02:19:29;12.10;99.90
13344;DHT22;6741;48.964;9.406;2022-10-18T02:21:57;12.10;99.90
13344;DHT22;6741;48.964;9.406;2022-10-18T02:24:30;12.20;99.90
13344;DHT22;6741;48.964;9.406;2022-10-18T02:26:58;12.20;99.90
13344;DHT22;6741;48.964;9.406;2022-10-18T02:29:25;12.20;99.90
13344;DHT22;6741;48.964;9.406;2022-10-18T02:31:55;12.20;99.90
13344;DHT22;6741;48.964;9.406;2022-10-18T02:34:29;12.30;99.90
13344;DHT22;6741;48.964;9.406;2022-10-18T02:36:58;12.40;99.90
13344;DHT22;6741;48.964;9.406;2022-10-18T02:39:28;12.40;99.90
13344;DHT22;6741;48.964;9.406;2022-10-18T02:41:56;12.40;99.90
13344;DHT22;6741;48.964;9.406;2022-10-18T02:44:24;12.50;99.90
13344;DHT22;6741;48.964;9.406;2022-10-18T02:46:51;12.50;99.90
13344;DHT22;6741;48.964;9.406;2022-10-18T02:49:18;12.50;99.90
13344;DHT22;6741;48.964;9.406;2022-10-18T02:51:47;12.60;99.90
13344;DHT22;6741;48.964;9.406;2022-10-18T02:54:14;12.60;99.90
13344;DHT22;6741;48.964;9.406;2022-10-18T02:56:41;12.60;99.90
13344;DHT22;6741;48.964;9.406;2022-10-18T02:59:07;12.60;99.90
13344;DHT22;6741;48.964;9.406;2022-10-18T03:01:34;12.60;99.90
13344;DHT22;6741;48.964;9.406;2022-10-18T03:04:02;12.60;99.90
13344;DHT22;6741;48.964;9.406;2022-10-18T03:06:29;12.60;99.90
13344;DHT22;6741;48.964;9.406;2022-10-18T03:08:58;12.60;99.90
13344;DHT22;6741;48.964;9.406;2022-10-18T03:11:25;12.60;99.90
13344;DHT22;6741;48.964;9.406;2022-10-18T03:13:52;12.60;99.90
13344;DHT22;6741;48.964;9.406;2022-10-18T03:16:19;12.60;99.90
13344;DHT22;6741;48.964;9.406;2022-10-18T03:18:46;12.60;99.90
13344;DHT22;6741;48.964;9.406;2022-10-18T03:21:13;12.60;99.90
13344;DHT22;6741;48.964;9.406;2022-10-18T03:23:40;12.60;99.90
13344;DHT22;6741;48.964;9.406;2022-10-18T03:26:08;12.60;99.90
13344;DHT22;6741;48.964;9.406;2022-10-18T03:28:35;12.60;99.90
13344;DHT22;6741;48.964;9.406;2022-10-18T03:31:03;12.70;99.90
13344;DHT22;6741;48.964;9.406;2022-10-18T03:33:31;12.70;99.90
13344;DHT22;6741;48.964;9.406;2022-10-18T03:35:58;12.80;99.90
13344;DHT22;6741;48.964;9.406;2022-10-18T03:38:26;12.80;99.90
13344;DHT22;6741;48.964;9.406;2022-10-18T03:40:53;12.80;99.90
13344;DHT22;6741;48.964;9.406;2022-10-18T03:43:21;12.80;99.90
13344;DHT22;6741;48.964;9.406;2022-10-18T03:45:48;12.80;99.90
13344;DHT22;6741;48.964;9.406;2022-10-18T03:48:15;12.80;99.90
13344;DHT22;6741;48.964;9.406;2022-10-18T03:50:43;12.80;99.90
13344;DHT22;6741;48.964;9.406;2022-10-18T03:53:10;12.80;99.90
13344;DHT22;6741;48.964;9.406;2022-10-18T03:55:37;12.80;99.90
13344;DHT22;6741;48.964;9.406;2022-10-18T03:58:05;12.80;99.90
13344;DHT22;6741;48.964;9.406;2022-10-18T04:00:33;12.80;99.90
13344;DHT22;6741;48.964;9.406;2022-10-18T04:03:00;12.80;99.90
13344;DHT22;6741;48.964;9.406;2022-10-18T04:05:27;12.80;99.90
13344;DHT22;6741;48.964;9.406;2022-10-18T04:07:55;12.90;99.90
13344;DHT22;6741;48.964;9.406;2022-10-18T04:10:22;13.00;99.90
13344;DHT22;6741;48.964;9.406;2022-10-18T04:12:49;13.00;99.90
13344;DHT22;6741;48.964;9.406;2022-10-18T04:15:16;12.90;99.90
13344;DHT22;6741;48.964;9.406;2022-10-18T04:17:45;12.90;99.90
13344;DHT22;6741;48.964;9.406;2022-10-18T04:20:12;12.90;99.90
13344;DHT22;6741;48.964;9.406;2022-10-18T04:22:39;12.90;99.90
13344;DHT22;6741;48.964;9.406;2022-10-18T04:25:06;12.90;99.90
13344;DHT22;6741;48.964;9.406;2022-10-18T04:27:33;13.00;99.90
13344;DHT22;6741;48.964;9.406;2022-10-18T04:30:00;13.00;99.90
13344;DHT22;6741;48.964;9.406;2022-10-18T04:32:27;13.00;99.90
13344;DHT22;6741;48.964;9.406;2022-10-18T04:34:56;12.90;99.90
13344;DHT22;6741;48.964;9.406;2022-10-18T04:37:23;13.00;99.90
13344;DHT22;6741;48.964;9.406;2022-10-18T04:39:50;13.00;99.90
13344;DHT22;6741;48.964;9.406;2022-10-18T04:42:16;13.00;99.90
13344;DHT22;6741;48.964;9.406;2022-10-18T04:44:43;13.00;99.90
13344;DHT22;6741;48.964;9.406;2022-10-18T04:47:10;13.00;99.90
13344;DHT22;6741;48.964;9.406;2022-10-18T04:49:37;13.00;99.90
13344;DHT22;6741;48.964;9.406;2022-10-18T04:52:05;13.00;99.90
13344;DHT22;6741;48.964;9.406;2022-10-18T04:54:32;13.00;99.90
13344;DHT22;6741;48.964;9.406;2022-10-18T04:56:59;13.00;99.90
13344;DHT22;6741;48.964;9.406;2022-10-18T04:59:26;13.10;99.90
13344;DHT22;6741;48.964;9.406;2022-10-18T05:01:53;13.10;99.90
13344;DHT22;6741;48.964;9.406;2022-10-18T05:04:20;13.00;99.90
13344;DHT22;6741;48.964;9.406;2022-10-18T05:06:47;13.00;99.90
13344;DHT22;6741;48.964;9.406;2022-10-18T05:09:15;13.00;99.90
13344;DHT22;6741;48.964;9.406;2022-10-18T05:11:42;13.00;99.90
13344;DHT22;6741;48.964;9.406;2022-10-18T05:14:09;13.10;99.90
13344;DHT22;6741;48.964;9.406;2022-10-18T05:16:36;13.00;99.90
13344;DHT22;6741;48.964;9.406;2022-10-18T05:19:08;13.00;99.90
13344;DHT22;6741;48.964;9.406;2022-10-18T05:21:35;13.00;99.90
13344;DHT22;6741;48.964;9.406;2022-10-18T05:24:02;13.00;99.90
13344;DHT22;6741;48.964;9.406;2022-10-18T05:26:31;13.00;99.90
13344;DHT22;6741;48.964;9.406;2022-10-18T05:28:58;13.00;99.90
13344;DHT22;6741;48.964;9.406;2022-10-18T05:31:25;13.00;99.90
13344;DHT22;6741;48.964;9.406;2022-10-18T05:33:52;13.00;99.90
13344;DHT22;6741;48.964;9.406;2022-10-18T05:36:18;13.00;99.90
13344;DHT22;6741;48.964;9.406;2022-10-18T05:38:45;13.00;99.90
13344;DHT22;6741;48.964;9.406;2022-10-18T05:41:13;13.00;99.90
13344;DHT22;6741;48.964;9.406;2022-10-18T05:43:41;13.00;99.90
13344;DHT22;6741;48.964;9.406;2022-10-18T05:46:09;12.90;99.90
13344;DHT22;6741;48.964;9.406;2022-10-18T05:48:37;12.90;99.90
13344;DHT22;6741;48.964;9.406;2022-10-18T05:51:04;12.80;99.90
13344;DHT22;6741;48.964;9.406;2022-10-18T05:53:31;12.80;99.90
13344;DHT22;6741;48.964;9.406;2022-10-18T05:55:59;12.80;99.90
13344;DHT22;6741;48.964;9.406;2022-10-18T05:58:27;12.80;99.90
13344;DHT22;6741;48.964;9.406;2022-10-18T06:00:57;12.80;99.90
13344;DHT22;6741;48.964;9.406;2022-10-18T06:03:24;12.70;99.90
13344;DHT22;6741;48.964;9.406;2022-10-18T06:05:52;12.70;99.90
13344;DHT22;6741;48.964;9.406;2022-10-18T06:08:19;12.70;99.90
13344;DHT22;6741;48.964;9.406;2022-10-18T06:10:46;12.60;99.90
13344;DHT22;6741;48.964;9.406;2022-10-18T06:13:13;12.60;99.90
13344;DHT22;6741;48.964;9.406;2022-10-18T06:15:40;12.60;99.90
13344;DHT22;6741;48.964;9.406;2022-10-18T06:18:08;12.60;99.90
13344;DHT22;6741;48.964;9.406;2022-10-18T06:20:35;12.70;99.90
13344;DHT22;6741;48.964;9.406;2022-10-18T06:23:02;12.70;99.90
13344;DHT22;6741;48.964;9.406;2022-10-18T06:25:29;12.70;99.90
13344;DHT22;6741;48.964;9.406;2022-10-18T06:27:56;12.70;99.90
13344;DHT22;6741;48.964;9.406;2022-10-18T06:30:22;12.80;99.90
13344;DHT22;6741;48.964;9.406;2022-10-18T06:32:49;12.80;99.90
13344;DHT22;6741;48.964;9.406;2022-10-18T06:35:18;12.90;99.90
13344;DHT22;6741;48.964;9.406;2022-10-18T06:37:45;12.90;99.90
13344;DHT22;6741;48.964;9.406;2022-10-18T06:40:12;13.00;99.90
13344;DHT22;6741;48.964;9.406;2022-10-18T06:42:38;13.10;99.90
13344;DHT22;6741;48.964;9.406;2022-10-18T06:45:07;13.10;99.90
13344;DHT22;6741;48.964;9.406;2022-10-18T06:47:34;13.20;99.90
13344;DHT22;6741;48.964;9.406;2022-10-18T06:50:01;13.40;99.90
13344;DHT22;6741;48.964;9.406;2022-10-18T06:52:29;13.50;99.90
13344;DHT22;6741;48.964;9.406;2022-10-18T06:54:56;13.60;99.90
13344;DHT22;6741;48.964;9.406;2022-10-18T06:57:23;13.70;99.90
13344;DHT22;6741;48.964;9.406;2022-10-18T06:59:50;13.80;99.90
13344;DHT22;6741;48.964;9.406;2022-10-18T07:02:17;13.80;99.90
13344;DHT22;6741;48.964;9.406;2022-10-18T07:04:43;13.80;99.90
13344;DHT22;6741;48.964;9.406;2022-10-18T07:07:10;13.90;99.90
13344;DHT22;6741;48.964;9.406;2022-10-18T07:09:39;14.00;99.90
13344;DHT22;6741;48.964;9.406;2022-10-18T07:12:06;14.10;99.90
13344;DHT22;6741;48.964;9.406;2022-10-18T07:14:33;14.10;99.90
13344;DHT22;6741;48.964;9.406;2022-10-18T07:17:00;14.20;99.90
13344;DHT22;6741;48.964;9.406;2022-10-18T07:19:27;14.30;99.90
13344;DHT22;6741;48.964;9.406;2022-10-18T07:21:53;14.30;99.90
13344;DHT22;6741;48.964;9.406;2022-10-18T07:24:20;14.40;99.90
13344;DHT22;6741;48.964;9.406;2022-10-18T07:26:49;14.50;99.90
13344;DHT22;6741;48.964;9.406;2022-10-18T07:29:15;14.60;99.90
13344;DHT22;6741;48.964;9.406;2022-10-18T07:31:42;14.60;99.90
13344;DHT22;6741;48.964;9.406;2022-10-18T07:34:11;14.70;99.90
13344;DHT22;6741;48.964;9.406;2022-10-18T07:36:39;14.70;99.90
13344;DHT22;6741;48.964;9.406;2022-10-18T07:39:06;14.70;99.90
13344;DHT22;6741;48.964;9.406;2022-10-18T07:41:33;14.80;99.90
13344;DHT22;6741;48.964;9.406;2022-10-18T07:44:02;14.90;99.90
13344;DHT22;6741;48.964;9.406;2022-10-18T07:46:30;15.00;99.90
13344;DHT22;6741;48.964;9.406;2022-10-18T07:48:57;15.10;99.90
13344;DHT22;6741;48.964;9.406;2022-10-18T07:51:24;15.20;99.90
13344;DHT22;6741;48.964;9.406;2022-10-18T07:53:51;15.20;99.90
13344;DHT22;6741;48.964;9.406;2022-10-18T07:56:19;15.30;99.90
13344;DHT22;6741;48.964;9.406;2022-10-18T07:58:47;15.40;99.90
13344;DHT22;6741;48.964;9.406;2022-10-18T08:01:18;15.50;99.90
13344;DHT22;6741;48.964;9.406;2022-10-18T08:03:45;15.60;99.90
13344;DHT22;6741;48.964;9.406;2022-10-18T08:06:14;15.60;99.90
13344;DHT22;6741;48.964;9.406;2022-10-18T08:08:42;15.80;99.90
13344;DHT22;6741;48.964;9.406;2022-10-18T08:11:12;15.90;99.90
13344;DHT22;6741;48.964;9.406;2022-10-18T08:13:40;16.00;99.90
13344;DHT22;6741;48.964;9.406;2022-10-18T08:16:08;16.30;99.90
13344;DHT22;6741;48.964;9.406;2022-10-18T08:18:37;16.30;99.90
13344;DHT22;6741;48.964;9.406;2022-10-18T08:21:06;16.40;99.90
13344;DHT22;6741;48.964;9.406;2022-10-18T08:23:33;16.60;99.90
13344;DHT22;6741;48.964;9.406;2022-10-18T08:26:01;16.80;99.90
13344;DHT22;6741;48.964;9.406;2022-10-18T08:28:28;16.90;99.90
13344;DHT22;6741;48.964;9.406;2022-10-18T08:30:55;17.00;99.90
13344;DHT22;6741;48.964;9.406;2022-10-18T08:33:22;17.00;99.90
13344;DHT22;6741;48.964;9.406;2022-10-18T08:35:57;17.20;99.90
13344;DHT22;6741;48.964;9.406;2022-10-18T08:38:24;17.30;99.90
13344;DHT22;6741;48.964;9.406;2022-10-18T08:40:51;17.50;99.90
13344;DHT22;6741;48.964;9.406;2022-10-18T08:43:27;17.50;99.90
13344;DHT22;6741;48.964;9.406;2022-10-18T08:45:57;17.60;99.90
13344;DHT22;6741;48.964;9.406;2022-10-18T08:48:31;17.60;99.90
13344;DHT22;6741;48.964;9.406;2022-10-18T08:51:03;17.50;99.90
13344;DHT22;6741;48.964;9.406;2022-10-18T08:53:34;17.50;99.90
13344;DHT22;6741;48.964;9.406;2022-10-18T08:56:06;17.50;99.90
13344;DHT22;6741;48.964;9.406;2022-10-18T08:58:40;17.50;99.90
13344;DHT22;6741;48.964;9.406;2022-10-18T09:01:15;17.60;99.90
13344;DHT22;6741;48.964;9.406;2022-10-18T09:03:59;17.70;99.90
13344;DHT22;6741;48.964;9.406;2022-10-18T09:06:36;17.90;99.90
13344;DHT22;6741;48.964;9.406;2022-10-18T09:09:23;18.10;99.90
13344;DHT22;6741;48.964;9.406;2022-10-18T09:11:59;18.10;99.90
13344;DHT22;6741;48.964;9.406;2022-10-18T09:15:07;18.40;99.90
13344;DHT22;6741;48.964;9.406;2022-10-18T09:17:47;18.70;99.90
13344;DHT22;6741;48.964;9.406;2022-10-18T09:20:21;18.80;99.90
13344;DHT22;6741;48.964;9.406;2022-10-18T09:22:55;18.90;99.90
13344;DHT22;6741;48.964;9.406;2022-10-18T09:25:23;19.00;99.90
13344;DHT22;6741;48.964;9.406;2022-10-18T09:27:53;19.10;99.90
13344;DHT22;6741;48.964;9.406;2022-10-18T09:30:39;19.00;99.90
13344;DHT22;6741;48.964;9.406;2022-10-18T09:33:18;18.90;99.90
13344;DHT22;6741;48.964;9.406;2022-10-18T09:35:51;19.10;99.90
13344;DHT22;6741;48.964;9.406;2022-10-18T09:38:25;19.30;99.90
13344;DHT22;6741;48.964;9.406;2022-10-18T09:40:58;19.40;99.90
13344;DHT22;6741;48.964;9.406;2022-10-18T09:43:37;19.30;99.90
13344;DHT22;6741;48.964;9.406;2022-10-18T09:46:07;19.30;99.90
13344;DHT22;6741;48.964;9.406;2022-10-18T09:48:41;19.50;99.90
13344;DHT22;6741;48.964;9.406;2022-10-18T09:51:14;19.80;99.90
13344;DHT22;6741;48.964;9.406;2022-10-18T09:54:07;19.90;99.90
13344;DHT22;6741;48.964;9.406;2022-10-18T09:56:45;19.90;99.90
13344;DHT22;6741;48.964;9.406;2022-10-18T09:59:35;20.20;99.90
13344;DHT22;6741;48.964;9.406;2022-10-18T10:02:04;20.50;99.90
13344;DHT22;6741;48.964;9.406;2022-10-18T10:04:32;20.10;99.90
13344;DHT22;6741;48.964;9.406;2022-10-18T10:07:01;20.60;99.90
13344;DHT22;6741;48.964;9.406;2022-10-18T10:09:40;21.30;99.90
13344;DHT22;6741;48.964;9.406;2022-10-18T10:12:27;21.80;99.90
13344;DHT22;6741;48.964;9.406;2022-10-18T10:15:06;21.70;99.90
13344;DHT22;6741;48.964;9.406;2022-10-18T10:17:35;21.20;99.90
13344;DHT22;6741;48.964;9.406;2022-10-18T10:20:14;21.20;99.90
13344;DHT22;6741;48.964;9.406;2022-10-18T10:22:45;21.80;99.90
13344;DHT22;6741;48.964;9.406;2022-10-18T10:25:24;21.20;99.90
13344;DHT22;6741;48.964;9.406;2022-10-18T10:27:55;21.20;99.90
13344;DHT22;6741;48.964;9.406;2022-10-18T10:30:30;21.00;99.90
13344;DHT22;6741;48.964;9.406;2022-10-18T10:32:58;20.90;99.90
13344;DHT22;6741;48.964;9.406;2022-10-18T10:35:31;21.40;99.90
13344;DHT22;6741;48.964;9.406;2022-10-18T10:37:59;21.00;99.90
13344;DHT22;6741;48.964;9.406;2022-10-18T10:40:34;20.70;99.90
13344;DHT22;6741;48.964;9.406;2022-10-18T10:43:06;20.70;99.90
13344;DHT22;6741;48.964;9.406;2022-10-18T10:45:53;20.70;99.90
13344;DHT22;6741;48.964;9.406;2022-10-18T10:48:23;20.60;99.90
13344;DHT22;6741;48.964;9.406;2022-10-18T10:50:59;21.00;99.90
13344;DHT22;6741;48.964;9.406;2022-10-18T10:53:47;21.40;99.90
13344;DHT22;6741;48.964;9.406;2022-10-18T10:56:23;21.60;99.90
13344;DHT22;6741;48.964;9.406;2022-10-18T10:58:53;21.50;99.90
13344;DHT22;6741;48.964;9.406;2022-10-18T11:01:25;22.80;99.90
13344;DHT22;6741;48.964;9.406;2022-10-18T11:03:54;22.30;99.90
13344;DHT22;6741;48.964;9.406;2022-10-18T11:06:36;22.40;99.90
13344;DHT22;6741;48.964;9.406;2022-10-18T11:09:12;23.10;99.90
13344;DHT22;6741;48.964;9.406;2022-10-18T11:11:50;23.00;99.90
13344;DHT22;6741;48.964;9.406;2022-10-18T11:14:24;22.30;99.90
13344;DHT22;6741;48.964;9.406;2022-10-18T11:16:57;22.00;99.90
13344;DHT22;6741;48.964;9.406;2022-10-18T11:19:33;22.50;99.90
13344;DHT22;6741;48.964;9.406;2022-10-18T11:22:04;23.40;99.90
13344;DHT22;6741;48.964;9.406;2022-10-18T11:24:34;24.50;99.90
13344;DHT22;6741;48.964;9.406;2022-10-18T11:27:06;24.80;99.90
13344;DHT22;6741;48.964;9.406;2022-10-18T11:32:36;24.30;99.90
13344;DHT22;6741;48.964;9.406;2022-10-18T11:35:29;25.10;99.90
13344;DHT22;6741;48.964;9.406;2022-10-18T11:38:18;26.30;99.90
13344;DHT22;6741;48.964;9.406;2022-10-18T11:40:57;26.50;99.90
13344;DHT22;6741;48.964;9.406;2022-10-18T11:43:36;26.70;99.90
13344;DHT22;6741;48.964;9.406;2022-10-18T11:46:10;26.70;99.90
13344;DHT22;6741;48.964;9.406;2022-10-18T11:51:44;26.90;99.90
13344;DHT22;6741;48.964;9.406;2022-10-18T11:57:19;24.10;99.90
13344;DHT22;6741;48.964;9.406;2022-10-18T11:59:59;23.20;99.90
13344;DHT22;6741;48.964;9.406;2022-10-18T12:02:52;22.70;99.90
13344;DHT22;6741;48.964;9.406;2022-10-18T12:05:25;22.00;99.90
13344;DHT22;6741;48.964;9.406;2022-10-18T12:07:59;21.20;99.90
13344;DHT22;6741;48.964;9.406;2022-10-18T12:10:31;21.00;99.90
13344;DHT22;6741;48.964;9.406;2022-10-18T12:13:02;20.70;99.90
13344;DHT22;6741;48.964;9.406;2022-10-18T12:15:35;20.60;99.90
13344;DHT22;6741;48.964;9.406;2022-10-18T12:18:09;20.50;99.90
13344;DHT22;6741;48.964;9.406;2022-10-18T12:20:40;20.50;99.90
13344;DHT22;6741;48.964;9.406;2022-10-18T12:23:11;20.80;99.90
13344;DHT22;6741;48.964;9.406;2022-10-18T12:25:40;21.40;99.90
13344;DHT22;6741;48.964;9.406;2022-10-18T12:28:15;22.30;99.90
13344;DHT22;6741;48.964;9.406;2022-10-18T12:30:51;24.30;99.90
13344;DHT22;6741;48.964;9.406;2022-10-18T12:33:24;23.50;99.90
13344;DHT22;6741;48.964;9.406;2022-10-18T12:36:00;23.00;99.90
13344;DHT22;6741;48.964;9.406;2022-10-18T12:38:32;21.70;99.90
13344;DHT22;6741;48.964;9.406;2022-10-18T12:41:00;21.80;99.90
13344;DHT22;6741;48.964;9.406;2022-10-18T12:43:29;23.30;99.90
13344;DHT22;6741;48.964;9.406;2022-10-18T12:46:03;23.00;99.90
13344;DHT22;6741;48.964;9.406;2022-10-18T12:48:33;22.70;99.90
13344;DHT22;6741;48.964;9.406;2022-10-18T12:51:06;22.30;99.90
13344;DHT22;6741;48.964;9.406;2022-10-18T12:53:39;23.30;99.90
13344;DHT22;6741;48.964;9.406;2022-10-18T12:56:33;24.00;99.90
13344;DHT22;6741;48.964;9.406;2022-10-18T13:02:25;25.90;99.90
13344;DHT22;6741;48.964;9.406;2022-10-18T13:04:52;26.60;99.90
13344;DHT22;6741;48.964;9.406;2022-10-18T13:07:35;26.40;99.90
13344;DHT22;6741;48.964;9.406;2022-10-18T13:10:39;27.80;99.90
13344;DHT22;6741;48.964;9.406;2022-10-18T13:13:32;27.10;99.90
13344;DHT22;6741;48.964;9.406;2022-10-18T13:16:14;26.70;99.90
13344;DHT22;6741;48.964;9.406;2022-10-18T13:18:52;25.10;99.90
13344;DHT22;6741;48.964;9.406;2022-10-18T13:21:26;24.80;99.90
13344;DHT22;6741;48.964;9.406;2022-10-18T13:27:13;25.40;99.90
13344;DHT22;6741;48.964;9.406;2022-10-18T13:29:57;26.50;99.90
13344;DHT22;6741;48.964;9.406;2022-10-18T13:32:33;27.90;99.90
13344;DHT22;6741;48.964;9.406;2022-10-18T13:35:02;26.70;99.90
13344;DHT22;6741;48.964;9.406;2022-10-18T13:37:29;25.20;99.90
13344;DHT22;6741;48.964;9.406;2022-10-18T13:40:23;24.10;99.90
13344;DHT22;6741;48.964;9.406;2022-10-18T13:42:50;23.20;99.90
13344;DHT22;6741;48.964;9.406;2022-10-18T13:45:43;21.60;99.90
13344;DHT22;6741;48.964;9.406;2022-10-18T13:48:45;21.20;99.90
13344;DHT22;6741;48.964;9.406;2022-10-18T13:51:32;22.10;99.90
13344;DHT22;6741;48.964;9.406;2022-10-18T13:54:09;22.30;99.90
13344;DHT22;6741;48.964;9.406;2022-10-18T13:56:51;22.10;99.90
13344;DHT22;6741;48.964;9.406;2022-10-18T13:59:38;22.10;99.90
13344;DHT22;6741;48.964;9.406;2022-10-18T14:02:33;22.30;99.90
13344;DHT22;6741;48.964;9.406;2022-10-18T14:05:31;21.80;99.90
13344;DHT22;6741;48.964;9.406;2022-10-18T14:08:11;21.60;99.90
13344;DHT22;6741;48.964;9.406;2022-10-18T14:10:45;21.60;99.90
13344;DHT22;6741;48.964;9.406;2022-10-18T14:13:19;22.70;99.90
13344;DHT22;6741;48.964;9.406;2022-10-18T14:15:50;22.80;99.90
13344;DHT22;6741;48.964;9.406;2022-10-18T14:18:23;23.10;99.90
13344;DHT22;6741;48.964;9.406;2022-10-18T14:20:54;23.60;99.90
13344;DHT22;6741;48.964;9.406;2022-10-18T14:23:28;23.60;99.90
13344;DHT22;6741;48.964;9.406;2022-10-18T14:26:05;23.70;99.90
13344;DHT22;6741;48.964;9.406;2022-10-18T14:28:33;23.50;99.90
13344;DHT22;6741;48.964;9.406;2022-10-18T14:31:01;22.60;99.90
13344;DHT22;6741;48.964;9.406;2022-10-18T14:33:33;22.10;99.90
13344;DHT22;6741;48.964;9.406;2022-10-18T14:36:05;21.60;99.90
13344;DHT22;6741;48.964;9.406;2022-10-18T14:38:36;21.20;99.90
13344;DHT22;6741;48.964;9.406;2022-10-18T14:41:05;20.80;99.90
13344;DHT22;6741;48.964;9.406;2022-10-18T14:43:32;20.60;99.90
13344;DHT22;6741;48.964;9.406;2022-10-18T14:46:13;20.30;99.90
13344;DHT22;6741;48.964;9.406;2022-10-18T14:48:41;20.10;99.90
13344;DHT22;6741;48.964;9.406;2022-10-18T14:51:10;20.10;99.90
13344;DHT22;6741;48.964;9.406;2022-10-18T14:53:40;20.10;99.90
13344;DHT22;6741;48.964;9.406;2022-10-18T14:56:22;20.10;99.90
13344;DHT22;6741;48.964;9.406;2022-10-18T14:58:50;20.00;99.90
13344;DHT22;6741;48.964;9.406;2022-10-18T15:01:19;20.00;99.90
13344;DHT22;6741;48.964;9.406;2022-10-18T15:03:47;19.90;99.90
13344;DHT22;6741;48.964;9.406;2022-10-18T15:06:16;19.90;99.90
13344;DHT22;6741;48.964;9.406;2022-10-18T15:08:48;19.90;99.90
13344;DHT22;6741;48.964;9.406;2022-10-18T15:11:17;19.90;99.90
13344;DHT22;6741;48.964;9.406;2022-10-18T15:13:47;19.90;99.90
13344;DHT22;6741;48.964;9.406;2022-10-18T15:16:16;19.70;99.90
13344;DHT22;6741;48.964;9.406;2022-10-18T15:18:58;19.70;99.90
13344;DHT22;6741;48.964;9.406;2022-10-18T15:21:25;19.60;99.90
13344;DHT22;6741;48.964;9.406;2022-10-18T15:23:54;19.50;99.90
13344;DHT22;6741;48.964;9.406;2022-10-18T15:26:43;19.50;99.90
13344;DHT22;6741;48.964;9.406;2022-10-18T15:29:15;19.50;99.90
13344;DHT22;6741;48.964;9.406;2022-10-18T15:31:43;19.40;99.90
13344;DHT22;6741;48.964;9.406;2022-10-18T15:34:18;19.30;99.90
13344;DHT22;6741;48.964;9.406;2022-10-18T15:36:46;19.20;99.90
13344;DHT22;6741;48.964;9.406;2022-10-18T15:39:15;19.10;99.90
13344;DHT22;6741;48.964;9.406;2022-10-18T15:41:50;19.00;99.90
13344;DHT22;6741;48.964;9.406;2022-10-18T15:44:25;18.90;99.90
13344;DHT22;6741;48.964;9.406;2022-10-18T15:46:54;18.90;99.90
13344;DHT22;6741;48.964;9.406;2022-10-18T15:49:50;18.80;99.90
13344;DHT22;6741;48.964;9.406;2022-10-18T15:52:31;18.80;99.90
13344;DHT22;6741;48.964;9.406;2022-10-18T15:54:59;18.80;99.90
13344;DHT22;6741;48.964;9.406;2022-10-18T15:57:29;18.80;99.90
13344;DHT22;6741;48.964;9.406;2022-10-18T15:59:59;18.70;99.90
13344;DHT22;6741;48.964;9.406;2022-10-18T16:02:28;18.80;99.90
13344;DHT22;6741;48.964;9.406;2022-10-18T16:04:57;18.70;99.90
13344;DHT22;6741;48.964;9.406;2022-10-18T16:07:24;18.70;99.90
13344;DHT22;6741;48.964;9.406;2022-10-18T16:09:51;18.60;99.90
13344;DHT22;6741;48.964;9.406;2022-10-18T16:12:18;18.60;99.90
13344;DHT22;6741;48.964;9.406;2022-10-18T16:14:46;18.60;99.90
13344;DHT22;6741;48.964;9.406;2022-10-18T16:17:13;18.50;99.90
13344;DHT22;6741;48.964;9.406;2022-10-18T16:19:42;18.50;99.90
13344;DHT22;6741;48.964;9.406;2022-10-18T16:22:10;18.40;99.90
13344;DHT22;6741;48.964;9.406;2022-10-18T16:24:38;18.30;99.90
13344;DHT22;6741;48.964;9.406;2022-10-18T16:27:05;18.30;99.90